sensor_id;sensor_type;location;lat;lon;timestamp;P1;durP1;ratioP1;P2;durP2;ratioP2
56037;SDS011;41907;47.848;9.000;2023-11-19T00:01:48;11.43;;;8.20;;
56037;SDS011;41907;47.848;9.000;2023-11-19T00:04:14;11.20;;;8.23;;
56037;SDS011;41907;47.848;9.000;2023-11-19T00:06:39;11.32;;;8.45;;
56037;SDS011;41907;47.848;9.000;2023-11-19T00:09:04;9.40;;;7.18;;
56037;SDS011;41907;47.848;9.000;2023-11-19T00:11:30;12.75;;;8.98;;
56037;SDS011;41907;47.848;9.000;2023-11-19T00:13:56;16.25;;;10.05;;
56037;SDS011;41907;47.848;9.000;2023-11-19T00:16:21;12.73;;;9.13;;
56037;SDS011;41907;47.848;9.000;2023-11-19T00:18:46;15.88;;;10.60;;
56037;SDS011;41907;47.848;9.000;2023-11-19T00:21:12;14.68;;;9.38;;
56037;SDS011;41907;47.848;9.000;2023-11-19T00:23:37;13.45;;;10.93;;
56037;SDS011;41907;47.848;9.000;2023-11-19T00:26:03;13.38;;;9.00;;
56037;SDS011;41907;47.848;9.000;2023-11-19T00:28:31;15.45;;;11.18;;
56037;SDS011;41907;47.848;9.000;2023-11-19T00:30:57;13.43;;;11.25;;
56037;SDS011;41907;47.848;9.000;2023-11-19T00:33:22;14.95;;;12.38;;
56037;SDS011;41907;47.848;9.000;2023-11-19T00:35:47;14.63;;;10.88;;
56037;SDS011;41907;47.848;9.000;2023-11-19T00:38:13;11.55;;;9.57;;
56037;SDS011;41907;47.848;9.000;2023-11-19T00:40:38;15.75;;;10.32;;
56037;SDS011;41907;47.848;9.000;2023-11-19T00:43:05;13.55;;;9.70;;
56037;SDS011;41907;47.848;9.000;2023-11-19T00:45:31;11.07;;;8.52;;
56037;SDS011;41907;47.848;9.000;2023-11-19T00:47:56;11.13;;;8.30;;
56037;SDS011;41907;47.848;9.000;2023-11-19T00:50:24;12.73;;;8.38;;
56037;SDS011;41907;47.848;9.000;2023-11-19T00:52:49;11.48;;;8.25;;
56037;SDS011;41907;47.848;9.000;2023-11-19T00:55:15;12.15;;;7.90;;
56037;SDS011;41907;47.848;9.000;2023-11-19T00:57:40;10.57;;;8.20;;
56037;SDS011;41907;47.848;9.000;2023-11-19T01:00:05;13.43;;;9.43;;
56037;SDS011;41907;47.848;9.000;2023-11-19T01:02:43;100.70;;;51.85;;
56037;SDS011;41907;47.848;9.000;2023-11-19T01:05:10;81.00;;;43.78;;
56037;SDS011;41907;47.848;9.000;2023-11-19T01:07:39;32.13;;;19.20;;
56037;SDS011;41907;47.848;9.000;2023-11-19T01:10:04;12.80;;;9.23;;
56037;SDS011;41907;47.848;9.000;2023-11-19T01:12:30;9.57;;;8.05;;
56037;SDS011;41907;47.848;9.000;2023-11-19T01:14:56;10.90;;;7.95;;
56037;SDS011;41907;47.848;9.000;2023-11-19T01:17:22;10.82;;;7.70;;
56037;SDS011;41907;47.848;9.000;2023-11-19T01:19:48;10.05;;;7.40;;
56037;SDS011;41907;47.848;9.000;2023-11-19T01:22:15;10.48;;;7.75;;
56037;SDS011;41907;47.848;9.000;2023-11-19T01:24:40;10.32;;;7.68;;
56037;SDS011;41907;47.848;9.000;2023-11-19T01:27:05;11.82;;;8.65;;
56037;SDS011;41907;47.848;9.000;2023-11-19T01:29:31;12.13;;;9.50;;
56037;SDS011;41907;47.848;9.000;2023-11-19T01:31:56;13.30;;;9.13;;
56037;SDS011;41907;47.848;9.000;2023-11-19T01:34:21;14.07;;;10.40;;
56037;SDS011;41907;47.848;9.000;2023-11-19T01:36:47;14.18;;;9.70;;
56037;SDS011;41907;47.848;9.000;2023-11-19T01:39:13;13.07;;;10.00;;
56037;SDS011;41907;47.848;9.000;2023-11-19T01:41:41;16.23;;;11.68;;
56037;SDS011;41907;47.848;9.000;2023-11-19T01:44:06;19.63;;;11.88;;
56037;SDS011;41907;47.848;9.000;2023-11-19T01:46:31;16.45;;;10.63;;
56037;SDS011;41907;47.848;9.000;2023-11-19T01:48:57;18.30;;;11.38;;
56037;SDS011;41907;47.848;9.000;2023-11-19T01:51:24;17.00;;;11.15;;
56037;SDS011;41907;47.848;9.000;2023-11-19T01:53:50;16.10;;;10.88;;
56037;SDS011;41907;47.848;9.000;2023-11-19T01:56:15;12.10;;;8.95;;
56037;SDS011;41907;47.848;9.000;2023-11-19T01:58:41;19.05;;;11.75;;
56037;SDS011;41907;47.848;9.000;2023-11-19T02:01:10;30.50;;;14.57;;
56037;SDS011;41907;47.848;9.000;2023-11-19T02:03:36;31.98;;;14.65;;
56037;SDS011;41907;47.848;9.000;2023-11-19T02:06:02;30.08;;;14.70;;
56037;SDS011;41907;47.848;9.000;2023-11-19T02:08:28;18.08;;;10.15;;
56037;SDS011;41907;47.848;9.000;2023-11-19T02:10:54;13.00;;;8.00;;
56037;SDS011;41907;47.848;9.000;2023-11-19T02:13:22;12.20;;;7.63;;
56037;SDS011;41907;47.848;9.000;2023-11-19T02:15:51;13.68;;;8.85;;
56037;SDS011;41907;47.848;9.000;2023-11-19T02:18:17;22.02;;;9.30;;
56037;SDS011;41907;47.848;9.000;2023-11-19T02:23:08;21.52;;;11.30;;
56037;SDS011;41907;47.848;9.000;2023-11-19T02:25:34;27.30;;;14.65;;
56037;SDS011;41907;47.848;9.000;2023-11-19T02:28:01;49.88;;;33.33;;
56037;SDS011;41907;47.848;9.000;2023-11-19T02:30:28;201.73;;;123.82;;
56037;SDS011;41907;47.848;9.000;2023-11-19T02:32:57;157.05;;;100.60;;
56037;SDS011;41907;47.848;9.000;2023-11-19T02:35:27;94.72;;;62.70;;
56037;SDS011;41907;47.848;9.000;2023-11-19T02:37:53;58.58;;;40.70;;
56037;SDS011;41907;47.848;9.000;2023-11-19T02:40:19;53.08;;;33.42;;
56037;SDS011;41907;47.848;9.000;2023-11-19T02:42:44;31.88;;;20.33;;
56037;SDS011;41907;47.848;9.000;2023-11-19T02:45:10;30.15;;;20.25;;
56037;SDS011;41907;47.848;9.000;2023-11-19T02:47:39;27.02;;;17.55;;
56037;SDS011;41907;47.848;9.000;2023-11-19T02:50:11;8.55;;;5.57;;
56037;SDS011;41907;47.848;9.000;2023-11-19T02:52:43;8.27;;;5.72;;
56037;SDS011;41907;47.848;9.000;2023-11-19T02:55:12;5.30;;;4.07;;
56037;SDS011;41907;47.848;9.000;2023-11-19T02:57:38;11.88;;;7.45;;
56037;SDS011;41907;47.848;9.000;2023-11-19T03:02:40;15.32;;;10.05;;
56037;SDS011;41907;47.848;9.000;2023-11-19T03:05:14;15.27;;;8.10;;
56037;SDS011;41907;47.848;9.000;2023-11-19T03:07:43;10.52;;;5.85;;
56037;SDS011;41907;47.848;9.000;2023-11-19T03:10:12;10.65;;;7.00;;
56037;SDS011;41907;47.848;9.000;2023-11-19T03:12:41;10.60;;;6.82;;
56037;SDS011;41907;47.848;9.000;2023-11-19T03:15:07;11.20;;;6.53;;
56037;SDS011;41907;47.848;9.000;2023-11-19T03:17:34;13.77;;;8.20;;
56037;SDS011;41907;47.848;9.000;2023-11-19T03:20:01;10.90;;;5.88;;
56037;SDS011;41907;47.848;9.000;2023-11-19T03:22:26;9.55;;;5.50;;
56037;SDS011;41907;47.848;9.000;2023-11-19T03:24:51;7.55;;;5.18;;
56037;SDS011;41907;47.848;9.000;2023-11-19T03:27:17;7.45;;;4.72;;
56037;SDS011;41907;47.848;9.000;2023-11-19T03:29:42;8.82;;;4.90;;
56037;SDS011;41907;47.848;9.000;2023-11-19T03:32:08;11.63;;;6.05;;
56037;SDS011;41907;47.848;9.000;2023-11-19T03:34:33;8.52;;;5.32;;
56037;SDS011;41907;47.848;9.000;2023-11-19T03:36:59;10.32;;;5.45;;
56037;SDS011;41907;47.848;9.000;2023-11-19T03:39:24;5.75;;;4.53;;
56037;SDS011;41907;47.848;9.000;2023-11-19T03:41:50;6.72;;;4.80;;
56037;SDS011;41907;47.848;9.000;2023-11-19T03:44:15;6.38;;;4.72;;
56037;SDS011;41907;47.848;9.000;2023-11-19T03:46:41;9.13;;;5.55;;
56037;SDS011;41907;47.848;9.000;2023-11-19T03:49:07;8.52;;;5.50;;
56037;SDS011;41907;47.848;9.000;2023-11-19T03:51:32;13.35;;;6.82;;
56037;SDS011;41907;47.848;9.000;2023-11-19T03:53:59;12.50;;;6.00;;
56037;SDS011;41907;47.848;9.000;2023-11-19T03:56:25;9.98;;;5.93;;
56037;SDS011;41907;47.848;9.000;2023-11-19T03:58:50;6.70;;;5.28;;
56037;SDS011;41907;47.848;9.000;2023-11-19T04:01:17;7.65;;;5.20;;
56037;SDS011;41907;47.848;9.000;2023-11-19T04:03:42;15.45;;;10.10;;
56037;SDS011;41907;47.848;9.000;2023-11-19T04:06:07;18.67;;;12.10;;
56037;SDS011;41907;47.848;9.000;2023-11-19T04:08:33;14.20;;;9.82;;
56037;SDS011;41907;47.848;9.000;2023-11-19T04:11:00;12.93;;;7.90;;
56037;SDS011;41907;47.848;9.000;2023-11-19T04:13:26;13.38;;;9.90;;
56037;SDS011;41907;47.848;9.000;2023-11-19T04:15:51;25.15;;;15.70;;
56037;SDS011;41907;47.848;9.000;2023-11-19T04:18:16;22.75;;;13.20;;
56037;SDS011;41907;47.848;9.000;2023-11-19T04:20:42;17.85;;;11.93;;
56037;SDS011;41907;47.848;9.000;2023-11-19T04:23:07;18.50;;;10.40;;
56037;SDS011;41907;47.848;9.000;2023-11-19T04:25:33;13.45;;;8.20;;
56037;SDS011;41907;47.848;9.000;2023-11-19T04:28:00;14.88;;;8.85;;
56037;SDS011;41907;47.848;9.000;2023-11-19T04:30:25;19.20;;;11.73;;
56037;SDS011;41907;47.848;9.000;2023-11-19T04:32:51;18.00;;;10.20;;
56037;SDS011;41907;47.848;9.000;2023-11-19T04:35:16;15.02;;;9.75;;
56037;SDS011;41907;47.848;9.000;2023-11-19T04:37:51;14.48;;;10.32;;
56037;SDS011;41907;47.848;9.000;2023-11-19T04:40:16;47.22;;;25.83;;
56037;SDS011;41907;47.848;9.000;2023-11-19T04:42:43;12.70;;;8.38;;
56037;SDS011;41907;47.848;9.000;2023-11-19T04:45:08;12.82;;;8.38;;
56037;SDS011;41907;47.848;9.000;2023-11-19T04:47:35;14.07;;;9.43;;
56037;SDS011;41907;47.848;9.000;2023-11-19T04:50:01;11.80;;;8.40;;
56037;SDS011;41907;47.848;9.000;2023-11-19T04:52:27;12.32;;;9.10;;
56037;SDS011;41907;47.848;9.000;2023-11-19T04:54:52;13.43;;;10.02;;
56037;SDS011;41907;47.848;9.000;2023-11-19T04:57:17;13.98;;;9.05;;
56037;SDS011;41907;47.848;9.000;2023-11-19T04:59:43;13.15;;;8.80;;
56037;SDS011;41907;47.848;9.000;2023-11-19T05:02:08;11.73;;;8.20;;
56037;SDS011;41907;47.848;9.000;2023-11-19T05:04:34;11.25;;;8.63;;
56037;SDS011;41907;47.848;9.000;2023-11-19T05:06:59;12.60;;;8.55;;
56037;SDS011;41907;47.848;9.000;2023-11-19T05:09:25;10.32;;;8.23;;
56037;SDS011;41907;47.848;9.000;2023-11-19T05:11:51;9.38;;;8.13;;
56037;SDS011;41907;47.848;9.000;2023-11-19T05:14:16;11.65;;;9.50;;
56037;SDS011;41907;47.848;9.000;2023-11-19T05:16:43;15.35;;;9.60;;
56037;SDS011;41907;47.848;9.000;2023-11-19T05:19:09;17.80;;;11.25;;
56037;SDS011;41907;47.848;9.000;2023-11-19T05:21:34;17.48;;;12.68;;
56037;SDS011;41907;47.848;9.000;2023-11-19T05:24:00;20.63;;;11.80;;
56037;SDS011;41907;47.848;9.000;2023-11-19T05:26:26;22.65;;;12.55;;
56037;SDS011;41907;47.848;9.000;2023-11-19T05:28:51;23.70;;;13.25;;
56037;SDS011;41907;47.848;9.000;2023-11-19T05:31:17;20.08;;;13.52;;
56037;SDS011;41907;47.848;9.000;2023-11-19T05:33:43;42.35;;;26.33;;
56037;SDS011;41907;47.848;9.000;2023-11-19T05:36:10;22.35;;;16.40;;
56037;SDS011;41907;47.848;9.000;2023-11-19T05:38:36;16.02;;;11.52;;
56037;SDS011;41907;47.848;9.000;2023-11-19T05:41:02;13.48;;;10.75;;
56037;SDS011;41907;47.848;9.000;2023-11-19T05:43:27;13.38;;;9.73;;
56037;SDS011;41907;47.848;9.000;2023-11-19T05:45:53;11.73;;;8.65;;
56037;SDS011;41907;47.848;9.000;2023-11-19T05:48:18;11.52;;;8.80;;
56037;SDS011;41907;47.848;9.000;2023-11-19T05:50:43;11.45;;;8.55;;
56037;SDS011;41907;47.848;9.000;2023-11-19T05:53:09;13.48;;;9.55;;
56037;SDS011;41907;47.848;9.000;2023-11-19T06:00:37;15.60;;;9.32;;
56037;SDS011;41907;47.848;9.000;2023-11-19T06:03:03;12.00;;;9.63;;
56037;SDS011;41907;47.848;9.000;2023-11-19T06:05:29;16.10;;;11.55;;
56037;SDS011;41907;47.848;9.000;2023-11-19T06:07:54;17.52;;;12.30;;
56037;SDS011;41907;47.848;9.000;2023-11-19T06:10:20;25.23;;;17.75;;
56037;SDS011;41907;47.848;9.000;2023-11-19T06:12:45;20.77;;;14.77;;
56037;SDS011;41907;47.848;9.000;2023-11-19T06:15:11;15.18;;;11.90;;
56037;SDS011;41907;47.848;9.000;2023-11-19T06:17:36;19.27;;;13.98;;
56037;SDS011;41907;47.848;9.000;2023-11-19T06:20:02;14.98;;;11.63;;
56037;SDS011;41907;47.848;9.000;2023-11-19T06:22:29;19.67;;;12.18;;
56037;SDS011;41907;47.848;9.000;2023-11-19T06:24:55;17.50;;;11.60;;
56037;SDS011;41907;47.848;9.000;2023-11-19T06:27:20;16.38;;;11.63;;
56037;SDS011;41907;47.848;9.000;2023-11-19T06:29:47;49.28;;;25.17;;
56037;SDS011;41907;47.848;9.000;2023-11-19T06:32:12;69.90;;;37.17;;
56037;SDS011;41907;47.848;9.000;2023-11-19T06:34:38;33.38;;;21.10;;
56037;SDS011;41907;47.848;9.000;2023-11-19T06:39:29;42.90;;;27.23;;
56037;SDS011;41907;47.848;9.000;2023-11-19T06:41:54;65.15;;;39.63;;
56037;SDS011;41907;47.848;9.000;2023-11-19T06:44:19;56.50;;;34.15;;
56037;SDS011;41907;47.848;9.000;2023-11-19T06:46:45;59.28;;;42.78;;
56037;SDS011;41907;47.848;9.000;2023-11-19T06:49:11;48.75;;;29.55;;
56037;SDS011;41907;47.848;9.000;2023-11-19T06:51:40;52.55;;;40.88;;
56037;SDS011;41907;47.848;9.000;2023-11-19T06:54:07;37.25;;;26.45;;
56037;SDS011;41907;47.848;9.000;2023-11-19T06:56:32;33.17;;;17.80;;
56037;SDS011;41907;47.848;9.000;2023-11-19T06:58:57;49.50;;;25.83;;
56037;SDS011;41907;47.848;9.000;2023-11-19T07:01:23;44.25;;;22.35;;
56037;SDS011;41907;47.848;9.000;2023-11-19T07:03:48;35.10;;;22.08;;
56037;SDS011;41907;47.848;9.000;2023-11-19T07:06:14;69.35;;;37.10;;
56037;SDS011;41907;47.848;9.000;2023-11-19T07:08:42;52.03;;;27.05;;
56037;SDS011;41907;47.848;9.000;2023-11-19T07:11:12;51.08;;;22.65;;
56037;SDS011;41907;47.848;9.000;2023-11-19T07:13:41;73.88;;;30.95;;
56037;SDS011;41907;47.848;9.000;2023-11-19T07:16:07;33.22;;;17.08;;
56037;SDS011;41907;47.848;9.000;2023-11-19T07:18:34;19.77;;;12.02;;
56037;SDS011;41907;47.848;9.000;2023-11-19T07:21:00;22.48;;;11.10;;
56037;SDS011;41907;47.848;9.000;2023-11-19T07:23:25;97.15;;;34.85;;
56037;SDS011;41907;47.848;9.000;2023-11-19T07:25:51;64.93;;;28.85;;
56037;SDS011;41907;47.848;9.000;2023-11-19T07:28:18;98.78;;;36.38;;
56037;SDS011;41907;47.848;9.000;2023-11-19T07:30:43;53.13;;;20.52;;
56037;SDS011;41907;47.848;9.000;2023-11-19T07:33:09;49.95;;;22.58;;
56037;SDS011;41907;47.848;9.000;2023-11-19T07:35:34;47.72;;;21.75;;
56037;SDS011;41907;47.848;9.000;2023-11-19T07:38:00;32.30;;;17.63;;
56037;SDS011;41907;47.848;9.000;2023-11-19T07:40:25;20.42;;;8.88;;
56037;SDS011;41907;47.848;9.000;2023-11-19T07:42:50;10.48;;;7.28;;
56037;SDS011;41907;47.848;9.000;2023-11-19T07:45:16;7.07;;;5.22;;
56037;SDS011;41907;47.848;9.000;2023-11-19T07:47:42;13.45;;;7.40;;
56037;SDS011;41907;47.848;9.000;2023-11-19T07:50:09;20.52;;;12.68;;
56037;SDS011;41907;47.848;9.000;2023-11-19T07:52:35;25.33;;;11.85;;
56037;SDS011;41907;47.848;9.000;2023-11-19T07:55:01;6.38;;;5.05;;
56037;SDS011;41907;47.848;9.000;2023-11-19T07:57:27;9.52;;;4.38;;
56037;SDS011;41907;47.848;9.000;2023-11-19T07:59:55;7.30;;;4.90;;
56037;SDS011;41907;47.848;9.000;2023-11-19T08:02:21;7.85;;;5.90;;
56037;SDS011;41907;47.848;9.000;2023-11-19T08:04:48;12.60;;;8.60;;
56037;SDS011;41907;47.848;9.000;2023-11-19T08:07:16;17.80;;;10.65;;
56037;SDS011;41907;47.848;9.000;2023-11-19T08:09:42;25.45;;;11.57;;
56037;SDS011;41907;47.848;9.000;2023-11-19T08:12:08;32.17;;;13.85;;
56037;SDS011;41907;47.848;9.000;2023-11-19T08:14:33;42.78;;;24.55;;
56037;SDS011;41907;47.848;9.000;2023-11-19T08:16:59;29.77;;;14.73;;
56037;SDS011;41907;47.848;9.000;2023-11-19T08:19:24;19.63;;;10.70;;
56037;SDS011;41907;47.848;9.000;2023-11-19T08:21:50;24.70;;;12.25;;
56037;SDS011;41907;47.848;9.000;2023-11-19T08:24:15;11.80;;;7.20;;
56037;SDS011;41907;47.848;9.000;2023-11-19T08:26:40;10.85;;;7.20;;
56037;SDS011;41907;47.848;9.000;2023-11-19T08:29:06;53.58;;;34.88;;
56037;SDS011;41907;47.848;9.000;2023-11-19T08:31:32;21.67;;;13.63;;
56037;SDS011;41907;47.848;9.000;2023-11-19T08:33:57;31.67;;;23.58;;
56037;SDS011;41907;47.848;9.000;2023-11-19T08:36:22;26.05;;;16.80;;
56037;SDS011;41907;47.848;9.000;2023-11-19T08:38:48;17.23;;;10.70;;
56037;SDS011;41907;47.848;9.000;2023-11-19T08:41:13;14.70;;;9.88;;
56037;SDS011;41907;47.848;9.000;2023-11-19T08:43:38;37.83;;;16.13;;
56037;SDS011;41907;47.848;9.000;2023-11-19T08:46:08;31.55;;;13.48;;
56037;SDS011;41907;47.848;9.000;2023-11-19T08:48:34;16.40;;;7.32;;
56037;SDS011;41907;47.848;9.000;2023-11-19T08:51:00;20.45;;;9.80;;
56037;SDS011;41907;47.848;9.000;2023-11-19T08:53:25;16.23;;;9.55;;
56037;SDS011;41907;47.848;9.000;2023-11-19T08:55:50;15.43;;;9.18;;
56037;SDS011;41907;47.848;9.000;2023-11-19T08:58:15;25.48;;;17.45;;
56037;SDS011;41907;47.848;9.000;2023-11-19T09:00:41;9.60;;;6.10;;
56037;SDS011;41907;47.848;9.000;2023-11-19T09:03:06;12.02;;;10.13;;
56037;SDS011;41907;47.848;9.000;2023-11-19T09:05:32;4.97;;;4.32;;
56037;SDS011;41907;47.848;9.000;2023-11-19T09:07:57;15.35;;;10.40;;
56037;SDS011;41907;47.848;9.000;2023-11-19T09:10:22;18.17;;;12.57;;
56037;SDS011;41907;47.848;9.000;2023-11-19T09:12:48;8.57;;;5.75;;
56037;SDS011;41907;47.848;9.000;2023-11-19T09:15:13;4.25;;;3.20;;
56037;SDS011;41907;47.848;9.000;2023-11-19T09:17:38;6.00;;;5.40;;
56037;SDS011;41907;47.848;9.000;2023-11-19T09:20:04;21.05;;;16.05;;
56037;SDS011;41907;47.848;9.000;2023-11-19T09:22:30;11.77;;;7.57;;
56037;SDS011;41907;47.848;9.000;2023-11-19T09:24:55;9.95;;;7.82;;
56037;SDS011;41907;47.848;9.000;2023-11-19T09:27:20;7.50;;;5.15;;
56037;SDS011;41907;47.848;9.000;2023-11-19T09:29:46;7.10;;;5.10;;
56037;SDS011;41907;47.848;9.000;2023-11-19T09:32:13;6.53;;;4.68;;
56037;SDS011;41907;47.848;9.000;2023-11-19T09:34:39;11.77;;;7.30;;
56037;SDS011;41907;47.848;9.000;2023-11-19T09:37:04;7.85;;;5.40;;
56037;SDS011;41907;47.848;9.000;2023-11-19T09:39:30;10.63;;;7.80;;
56037;SDS011;41907;47.848;9.000;2023-11-19T09:41:55;5.72;;;2.85;;
56037;SDS011;41907;47.848;9.000;2023-11-19T09:44:20;7.65;;;4.28;;
56037;SDS011;41907;47.848;9.000;2023-11-19T09:46:46;12.48;;;6.80;;
56037;SDS011;41907;47.848;9.000;2023-11-19T09:49:13;16.05;;;8.57;;
56037;SDS011;41907;47.848;9.000;2023-11-19T09:51:43;12.35;;;6.53;;
56037;SDS011;41907;47.848;9.000;2023-11-19T09:54:09;3.72;;;2.90;;
56037;SDS011;41907;47.848;9.000;2023-11-19T09:56:34;4.80;;;4.15;;
56037;SDS011;41907;47.848;9.000;2023-11-19T09:59:02;4.18;;;3.50;;
56037;SDS011;41907;47.848;9.000;2023-11-19T10:01:28;4.60;;;2.83;;
56037;SDS011;41907;47.848;9.000;2023-11-19T10:03:54;5.88;;;4.78;;
56037;SDS011;41907;47.848;9.000;2023-11-19T10:06:20;4.93;;;3.00;;
56037;SDS011;41907;47.848;9.000;2023-11-19T10:08:46;12.68;;;6.65;;
56037;SDS011;41907;47.848;9.000;2023-11-19T10:11:12;22.75;;;14.27;;
56037;SDS011;41907;47.848;9.000;2023-11-19T10:13:38;8.98;;;6.20;;
56037;SDS011;41907;47.848;9.000;2023-11-19T10:16:06;10.23;;;5.40;;
56037;SDS011;41907;47.848;9.000;2023-11-19T10:18:33;19.35;;;11.73;;
56037;SDS011;41907;47.848;9.000;2023-11-19T10:21:02;8.02;;;4.75;;
56037;SDS011;41907;47.848;9.000;2023-11-19T10:23:29;12.07;;;5.40;;
56037;SDS011;41907;47.848;9.000;2023-11-19T10:25:54;11.77;;;9.50;;
56037;SDS011;41907;47.848;9.000;2023-11-19T10:28:28;17.20;;;12.05;;
56037;SDS011;41907;47.848;9.000;2023-11-19T10:31:05;7.75;;;4.10;;
56037;SDS011;41907;47.848;9.000;2023-11-19T10:33:30;5.78;;;3.47;;
56037;SDS011;41907;47.848;9.000;2023-11-19T10:35:56;8.45;;;4.88;;
56037;SDS011;41907;47.848;9.000;2023-11-19T10:38:23;10.98;;;6.32;;
56037;SDS011;41907;47.848;9.000;2023-11-19T10:40:49;34.55;;;18.73;;
56037;SDS011;41907;47.848;9.000;2023-11-19T10:43:18;8.65;;;4.65;;
56037;SDS011;41907;47.848;9.000;2023-11-19T10:45:44;7.38;;;3.28;;
56037;SDS011;41907;47.848;9.000;2023-11-19T10:48:10;14.50;;;6.30;;
56037;SDS011;41907;47.848;9.000;2023-11-19T10:50:37;12.43;;;5.75;;
56037;SDS011;41907;47.848;9.000;2023-11-19T10:53:05;12.13;;;6.10;;
56037;SDS011;41907;47.848;9.000;2023-11-19T10:55:32;11.15;;;5.78;;
56037;SDS011;41907;47.848;9.000;2023-11-19T10:58:00;18.30;;;9.43;;
56037;SDS011;41907;47.848;9.000;2023-11-19T11:00:37;13.98;;;7.57;;
56037;SDS011;41907;47.848;9.000;2023-11-19T11:03:10;14.63;;;8.32;;
56037;SDS011;41907;47.848;9.000;2023-11-19T11:05:43;52.22;;;35.10;;
56037;SDS011;41907;47.848;9.000;2023-11-19T11:08:12;18.40;;;9.93;;
56037;SDS011;41907;47.848;9.000;2023-11-19T11:10:43;9.95;;;4.00;;
56037;SDS011;41907;47.848;9.000;2023-11-19T11:13:10;2.88;;;1.70;;
56037;SDS011;41907;47.848;9.000;2023-11-19T11:15:38;6.00;;;2.55;;
56037;SDS011;41907;47.848;9.000;2023-11-19T11:18:06;9.38;;;5.13;;
56037;SDS011;41907;47.848;9.000;2023-11-19T11:20:34;5.03;;;2.20;;
56037;SDS011;41907;47.848;9.000;2023-11-19T11:40:01;12.15;;;8.90;;
56037;SDS011;41907;47.848;9.000;2023-11-19T11:42:31;13.32;;;7.88;;
56037;SDS011;41907;47.848;9.000;2023-11-19T11:45:09;6.57;;;5.22;;
56037;SDS011;41907;47.848;9.000;2023-11-19T11:50:11;9.50;;;6.43;;
56037;SDS011;41907;47.848;9.000;2023-11-19T11:53:22;7.05;;;4.70;;
56037;SDS011;41907;47.848;9.000;2023-11-19T11:55:28;4.40;;;2.10;;
56037;SDS011;41907;47.848;9.000;2023-11-19T11:57:54;5.43;;;2.45;;
56037;SDS011;41907;47.848;9.000;2023-11-19T12:02:54;6.70;;;3.00;;
56037;SDS011;41907;47.848;9.000;2023-11-19T12:05:21;2.47;;;1.45;;
56037;SDS011;41907;47.848;9.000;2023-11-19T12:10:24;2.72;;;1.85;;
56037;SDS011;41907;47.848;9.000;2023-11-19T12:12:52;6.10;;;2.45;;
56037;SDS011;41907;47.848;9.000;2023-11-19T12:15:17;2.35;;;1.63;;
56037;SDS011;41907;47.848;9.000;2023-11-19T12:17:50;2.58;;;1.85;;
56037;SDS011;41907;47.848;9.000;2023-11-19T12:20:17;8.20;;;4.82;;
56037;SDS011;41907;47.848;9.000;2023-11-19T12:22:44;14.30;;;6.75;;
56037;SDS011;41907;47.848;9.000;2023-11-19T12:25:11;17.80;;;8.02;;
56037;SDS011;41907;47.848;9.000;2023-11-19T12:27:39;8.55;;;3.92;;
56037;SDS011;41907;47.848;9.000;2023-11-19T12:30:25;7.75;;;4.00;;
56037;SDS011;41907;47.848;9.000;2023-11-19T12:32:51;7.20;;;4.45;;
56037;SDS011;41907;47.848;9.000;2023-11-19T12:35:18;8.45;;;6.18;;
56037;SDS011;41907;47.848;9.000;2023-11-19T12:37:45;17.92;;;7.93;;
56037;SDS011;41907;47.848;9.000;2023-11-19T12:40:16;13.00;;;6.50;;
56037;SDS011;41907;47.848;9.000;2023-11-19T12:42:43;16.70;;;6.65;;
56037;SDS011;41907;47.848;9.000;2023-11-19T12:45:09;50.30;;;26.30;;
56037;SDS011;41907;47.848;9.000;2023-11-19T12:47:39;10.75;;;7.22;;
56037;SDS011;41907;47.848;9.000;2023-11-19T12:50:05;19.38;;;17.27;;
56037;SDS011;41907;47.848;9.000;2023-11-19T12:52:32;43.05;;;38.40;;
56037;SDS011;41907;47.848;9.000;2023-11-19T12:54:57;60.17;;;54.13;;
56037;SDS011;41907;47.848;9.000;2023-11-19T12:57:36;32.83;;;29.50;;
56037;SDS011;41907;47.848;9.000;2023-11-19T13:00:02;21.33;;;17.90;;
56037;SDS011;41907;47.848;9.000;2023-11-19T13:10:29;23.25;;;20.98;;
56037;SDS011;41907;47.848;9.000;2023-11-19T13:15:27;7.78;;;6.70;;
56037;SDS011;41907;47.848;9.000;2023-11-19T13:17:53;5.88;;;4.00;;
56037;SDS011;41907;47.848;9.000;2023-11-19T13:20:19;6.05;;;3.03;;
56037;SDS011;41907;47.848;9.000;2023-11-19T13:23:00;31.48;;;28.08;;
56037;SDS011;41907;47.848;9.000;2023-11-19T13:25:27;9.45;;;6.47;;
56037;SDS011;41907;47.848;9.000;2023-11-19T13:27:54;9.55;;;8.18;;
56037;SDS011;41907;47.848;9.000;2023-11-19T13:30:20;32.05;;;26.40;;
56037;SDS011;41907;47.848;9.000;2023-11-19T13:32:47;17.42;;;13.23;;
56037;SDS011;41907;47.848;9.000;2023-11-19T13:35:13;7.65;;;5.80;;
56037;SDS011;41907;47.848;9.000;2023-11-19T13:37:39;6.03;;;3.88;;
56037;SDS011;41907;47.848;9.000;2023-11-19T13:40:06;15.63;;;13.15;;
56037;SDS011;41907;47.848;9.000;2023-11-19T13:42:32;11.07;;;8.68;;
56037;SDS011;41907;47.848;9.000;2023-11-19T13:44:57;20.50;;;12.32;;
56037;SDS011;41907;47.848;9.000;2023-11-19T13:47:23;16.52;;;6.50;;
56037;SDS011;41907;47.848;9.000;2023-11-19T13:49:49;7.82;;;4.90;;
56037;SDS011;41907;47.848;9.000;2023-11-19T13:52:14;20.05;;;17.90;;
56037;SDS011;41907;47.848;9.000;2023-11-19T13:54:40;34.00;;;30.50;;
56037;SDS011;41907;47.848;9.000;2023-11-19T13:57:06;33.30;;;28.35;;
56037;SDS011;41907;47.848;9.000;2023-11-19T13:59:31;12.02;;;8.30;;
56037;SDS011;41907;47.848;9.000;2023-11-19T14:01:59;10.02;;;5.43;;
56037;SDS011;41907;47.848;9.000;2023-11-19T14:04:25;4.38;;;2.38;;
56037;SDS011;41907;47.848;9.000;2023-11-19T14:06:50;1.30;;;1.15;;
56037;SDS011;41907;47.848;9.000;2023-11-19T14:09:16;1.75;;;1.20;;
56037;SDS011;41907;47.848;9.000;2023-11-19T14:11:42;2.72;;;1.75;;
56037;SDS011;41907;47.848;9.000;2023-11-19T14:14:08;1.65;;;1.00;;
56037;SDS011;41907;47.848;9.000;2023-11-19T14:16:33;1.83;;;1.60;;
56037;SDS011;41907;47.848;9.000;2023-11-19T14:18:59;2.08;;;1.30;;
56037;SDS011;41907;47.848;9.000;2023-11-19T14:21:25;5.95;;;1.95;;
56037;SDS011;41907;47.848;9.000;2023-11-19T14:23:51;2.72;;;1.60;;
56037;SDS011;41907;47.848;9.000;2023-11-19T14:26:17;12.65;;;4.88;;
56037;SDS011;41907;47.848;9.000;2023-11-19T14:28:42;16.38;;;8.93;;
56037;SDS011;41907;47.848;9.000;2023-11-19T14:31:08;27.20;;;12.77;;
56037;SDS011;41907;47.848;9.000;2023-11-19T14:33:33;6.68;;;4.43;;
56037;SDS011;41907;47.848;9.000;2023-11-19T14:36:00;13.68;;;6.65;;
56037;SDS011;41907;47.848;9.000;2023-11-19T14:38:26;8.35;;;4.40;;
56037;SDS011;41907;47.848;9.000;2023-11-19T14:40:51;36.45;;;32.85;;
56037;SDS011;41907;47.848;9.000;2023-11-19T14:43:17;22.95;;;20.60;;
56037;SDS011;41907;47.848;9.000;2023-11-19T14:45:42;7.55;;;5.55;;
56037;SDS011;41907;47.848;9.000;2023-11-19T14:48:08;3.50;;;2.92;;
56037;SDS011;41907;47.848;9.000;2023-11-19T14:50:35;27.60;;;24.77;;
56037;SDS011;41907;47.848;9.000;2023-11-19T14:53:00;10.35;;;7.97;;
56037;SDS011;41907;47.848;9.000;2023-11-19T14:55:26;15.15;;;11.20;;
56037;SDS011;41907;47.848;9.000;2023-11-19T14:57:51;21.08;;;18.88;;
56037;SDS011;41907;47.848;9.000;2023-11-19T15:00:17;16.38;;;12.43;;
56037;SDS011;41907;47.848;9.000;2023-11-19T15:02:42;7.35;;;4.75;;
56037;SDS011;41907;47.848;9.000;2023-11-19T15:05:08;35.78;;;29.20;;
56037;SDS011;41907;47.848;9.000;2023-11-19T15:07:38;24.92;;;22.55;;
56037;SDS011;41907;47.848;9.000;2023-11-19T15:10:05;24.80;;;15.05;;
56037;SDS011;41907;47.848;9.000;2023-11-19T15:12:34;14.13;;;8.80;;
56037;SDS011;41907;47.848;9.000;2023-11-19T15:15:02;18.85;;;15.52;;
56037;SDS011;41907;47.848;9.000;2023-11-19T15:17:28;11.13;;;6.18;;